sensor_id;sensor_type;location;lat;lon;timestamp;pressure;altitude;pressure_sealevel;temperature;humidity
22283;BME280;11310;51.528;21.204;2022-09-09T00:01:00;99674.78;;;13.11;100.00
22283;BME280;11310;51.528;21.204;2022-09-09T00:03:33;99666.09;;;13.09;100.00
22283;BME280;11310;51.528;21.204;2022-09-09T00:06:08;99653.88;;;13.08;100.00
22283;BME280;11310;51.528;21.204;2022-09-09T00:08:41;99660.00;;;13.09;100.00
22283;BME280;11310;51.528;21.204;2022-09-09T00:11:24;99667.78;;;13.10;100.00
22283;BME280;11310;51.528;21.204;2022-09-09T00:14:00;99658.97;;;13.11;100.00
22283;BME280;11310;51.528;21.204;2022-09-09T00:16:34;99648.44;;;13.11;100.00
22283;BME280;11310;51.528;21.204;2022-09-09T00:19:09;99650.97;;;13.13;100.00
22283;BME280;11310;51.528;21.204;2022-09-09T00:21:43;99645.59;;;13.14;100.00
22283;BME280;11310;51.528;21.204;2022-09-09T00:24:16;99633.28;;;13.15;100.00
22283;BME280;11310;51.528;21.204;2022-09-09T00:26:48;99640.16;;;13.17;100.00
22283;BME280;11310;51.528;21.204;2022-09-09T00:29:22;99647.88;;;13.20;100.00
22283;BME280;11310;51.528;21.204;2022-09-09T00:32:11;99646.16;;;13.19;100.00
22283;BME280;11310;51.528;21.204;2022-09-09T00:34:43;99649.56;;;13.21;100.00
22283;BME280;11310;51.528;21.204;2022-09-09T00:37:14;99658.41;;;13.20;100.00
22283;BME280;11310;51.528;21.204;2022-09-09T00:39:47;99654.66;;;13.24;100.00
22283;BME280;11310;51.528;21.204;2022-09-09T00:42:17;99653.69;;;13.25;100.00
22283;BME280;11310;51.528;21.204;2022-09-09T00:44:51;99650.97;;;13.27;100.00
22283;BME280;11310;51.528;21.204;2022-09-09T00:47:25;99658.66;;;13.30;100.00
22283;BME280;11310;51.528;21.204;2022-09-09T00:49:59;99651.63;;;13.30;100.00
22283;BME280;11310;51.528;21.204;2022-09-09T00:52:34;99648.22;;;13.28;100.00
22283;BME280;11310;51.528;21.204;2022-09-09T00:55:07;99651.06;;;13.25;100.00
22283;BME280;11310;51.528;21.204;2022-09-09T00:57:40;99651.06;;;13.25;100.00
22283;BME280;11310;51.528;21.204;2022-09-09T01:00:19;99641.34;;;13.26;100.00
22283;BME280;11310;51.528;21.204;2022-09-09T01:02:52;99647.66;;;13.23;100.00
22283;BME280;11310;51.528;21.204;2022-09-09T01:05:24;99640.78;;;13.21;100.00
22283;BME280;11310;51.528;21.204;2022-09-09T01:07:56;99645.13;;;13.22;100.00
22283;BME280;11310;51.528;21.204;2022-09-09T01:10:29;99638.06;;;13.22;100.00
22283;BME280;11310;51.528;21.204;2022-09-09T01:13:02;99639.75;;;13.23;100.00
22283;BME280;11310;51.528;21.204;2022-09-09T01:15:33;99651.25;;;13.22;100.00
22283;BME280;11310;51.528;21.204;2022-09-09T01:18:04;99646.75;;;13.24;100.00
22283;BME280;11310;51.528;21.204;2022-09-09T01:20:37;99651.06;;;13.25;100.00
22283;BME280;11310;51.528;21.204;2022-09-09T01:23:17;99644.94;;;13.25;100.00
22283;BME280;11310;51.528;21.204;2022-09-09T01:26:11;99652.75;;;13.26;100.00
22283;BME280;11310;51.528;21.204;2022-09-09T01:28:43;99648.22;;;13.28;100.00
22283;BME280;11310;51.528;21.204;2022-09-09T01:31:17;99650.13;;;13.26;100.00
22283;BME280;11310;51.528;21.204;2022-09-09T01:33:48;99639.56;;;13.26;100.00
22283;BME280;11310;51.528;21.204;2022-09-09T01:36:21;99637.97;;;13.24;100.00
22283;BME280;11310;51.528;21.204;2022-09-09T01:38:55;99641.34;;;13.26;100.00
22283;BME280;11310;51.528;21.204;2022-09-09T01:41:25;99652.75;;;13.26;100.00
22283;BME280;11310;51.528;21.204;2022-09-09T01:44:15;99645.78;;;13.25;100.00
22283;BME280;11310;51.528;21.204;2022-09-09T01:46:45;99645.78;;;13.25;100.00
22283;BME280;11310;51.528;21.204;2022-09-09T01:49:18;99650.13;;;13.26;100.00
22283;BME280;11310;51.528;21.204;2022-09-09T01:51:49;99646.44;;;13.29;100.00
22283;BME280;11310;51.528;21.204;2022-09-09T01:54:22;99653.22;;;13.33;100.00
22283;BME280;11310;51.528;21.204;2022-09-09T01:56:57;99655.84;;;13.33;100.00
22283;BME280;11310;51.528;21.204;2022-09-09T01:59:40;99648.13;;;13.30;100.00
22283;BME280;11310;51.528;21.204;2022-09-09T02:02:17;99646.44;;;13.29;100.00
22283;BME280;11310;51.528;21.204;2022-09-09T02:05:03;99648.13;;;13.30;100.00
22283;BME280;11310;51.528;21.204;2022-09-09T02:07:38;99639.19;;;13.32;100.00
22283;BME280;11310;51.528;21.204;2022-09-09T02:10:20;99636.63;;;13.31;100.00
22283;BME280;11310;51.528;21.204;2022-09-09T02:13:02;99626.00;;;13.32;100.00
22283;BME280;11310;51.528;21.204;2022-09-09T02:15:35;99636.34;;;13.35;100.00
22283;BME280;11310;51.528;21.204;2022-09-09T02:18:06;99638.03;;;13.36;100.00
22283;BME280;11310;51.528;21.204;2022-09-09T02:20:37;99632.78;;;13.36;100.00
22283;BME280;11310;51.528;21.204;2022-09-09T02:23:07;99630.13;;;13.36;100.00
22283;BME280;11310;51.528;21.204;2022-09-09T02:25:39;99636.25;;;13.37;100.00
22283;BME280;11310;51.528;21.204;2022-09-09T02:28:21;99625.06;;;13.33;100.00
22283;BME280;11310;51.528;21.204;2022-09-09T02:30:52;99619.69;;;13.35;100.00
22283;BME280;11310;51.528;21.204;2022-09-09T02:33:30;99622.31;;;13.35;100.00
22283;BME280;11310;51.528;21.204;2022-09-09T02:36:03;99623.19;;;13.35;100.00
22283;BME280;11310;51.528;21.204;2022-09-09T02:38:40;99620.47;;;13.37;100.00
22283;BME280;11310;51.528;21.204;2022-09-09T02:41:13;99630.03;;;13.38;100.00
22283;BME280;11310;51.528;21.204;2022-09-09T02:43:43;99629.19;;;13.37;100.00
22283;BME280;11310;51.528;21.204;2022-09-09T02:46:18;99629.00;;;13.40;100.00
22283;BME280;11310;51.528;21.204;2022-09-09T02:48:52;99630.50;;;13.44;100.00
22283;BME280;11310;51.528;21.204;2022-09-09T02:51:28;99629.66;;;13.44;100.00
22283;BME280;11310;51.528;21.204;2022-09-09T02:54:02;99624.38;;;13.44;100.00
22283;BME280;11310;51.528;21.204;2022-09-09T02:56:35;99629.66;;;13.44;100.00
22283;BME280;11310;51.528;21.204;2022-09-09T02:59:09;99626.19;;;13.43;100.00
22283;BME280;11310;51.528;21.204;2022-09-09T03:01:39;99632.19;;;13.45;100.00
22283;BME280;11310;51.528;21.204;2022-09-09T03:04:09;99633.03;;;13.46;100.00
22283;BME280;11310;51.528;21.204;2022-09-09T03:06:39;99639.06;;;13.48;100.00
22283;BME280;11310;51.528;21.204;2022-09-09T03:09:16;99636.22;;;13.51;100.00
22283;BME280;11310;51.528;21.204;2022-09-09T03:11:45;99640.47;;;13.53;100.00
22283;BME280;11310;51.528;21.204;2022-09-09T03:14:16;99632.66;;;13.52;100.00
22283;BME280;11310;51.528;21.204;2022-09-09T03:16:49;99635.28;;;13.52;100.00
22283;BME280;11310;51.528;21.204;2022-09-09T03:19:18;99628.00;;;13.55;100.00
22283;BME280;11310;51.528;21.204;2022-09-09T03:21:46;99634.88;;;13.58;100.00
22283;BME280;11310;51.528;21.204;2022-09-09T03:24:15;99630.47;;;13.58;100.00
22283;BME280;11310;51.528;21.204;2022-09-09T03:26:43;99639.09;;;13.60;100.00
22283;BME280;11310;51.528;21.204;2022-09-09T03:29:17;99626.88;;;13.59;100.00
22283;BME280;11310;51.528;21.204;2022-09-09T03:31:46;99628.38;;;13.63;100.00
22283;BME280;11310;51.528;21.204;2022-09-09T03:34:19;99624.06;;;13.62;100.00
22283;BME280;11310;51.528;21.204;2022-09-09T03:36:48;99631.97;;;13.62;100.00
22283;BME280;11310;51.528;21.204;2022-09-09T03:39:17;99629.31;;;13.62;100.00
22283;BME280;11310;51.528;21.204;2022-09-09T03:41:46;99637.22;;;13.62;100.00
22283;BME280;11310;51.528;21.204;2022-09-09T03:44:22;99633.56;;;13.65;100.00
22283;BME280;11310;51.528;21.204;2022-09-09T03:46:53;99636.81;;;13.68;100.00
22283;BME280;11310;51.528;21.204;2022-09-09T03:49:22;99638.63;;;13.68;100.00
22283;BME280;11310;51.528;21.204;2022-09-09T03:51:54;99633.56;;;13.65;100.00
22283;BME280;11310;51.528;21.204;2022-09-09T03:54:23;99638.72;;;13.66;100.00
22283;BME280;11310;51.528;21.204;2022-09-09T03:56:51;99637.78;;;13.67;100.00
22283;BME280;11310;51.528;21.204;2022-09-09T03:59:23;99630.81;;;13.66;100.00
22283;BME280;11310;51.528;21.204;2022-09-09T04:01:53;99635.16;;;13.67;100.00
22283;BME280;11310;51.528;21.204;2022-09-09T04:04:21;99638.72;;;13.66;100.00
22283;BME280;11310;51.528;21.204;2022-09-09T04:06:50;99638.41;;;13.71;100.00
22283;BME280;11310;51.528;21.204;2022-09-09T04:09:19;99634.09;;;13.70;100.00
22283;BME280;11310;51.528;21.204;2022-09-09T04:11:51;99639.28;;;13.71;100.00
22283;BME280;11310;51.528;21.204;2022-09-09T04:14:24;99638.41;;;13.71;100.00
22283;BME280;11310;51.528;21.204;2022-09-09T04:17:07;99638.41;;;13.71;100.00
22283;BME280;11310;51.528;21.204;2022-09-09T04:19:36;99639.19;;;13.73;100.00
22283;BME280;11310;51.528;21.204;2022-09-09T04:22:07;99642.66;;;13.73;100.00
22283;BME280;11310;51.528;21.204;2022-09-09T04:24:37;99643.59;;;13.72;100.00
22283;BME280;11310;51.528;21.204;2022-09-09T04:27:07;99636.41;;;13.74;100.00
22283;BME280;11310;51.528;21.204;2022-09-09T04:29:38;99643.50;;;13.74;100.00
22283;BME280;11310;51.528;21.204;2022-09-09T04:32:08;99644.47;;;13.73;100.00
22283;BME280;11310;51.528;21.204;2022-09-09T04:34:38;99648.69;;;13.75;100.00
22283;BME280;11310;51.528;21.204;2022-09-09T04:37:09;99645.19;;;13.75;100.00
22283;BME280;11310;51.528;21.204;2022-09-09T04:39:39;99646.13;;;13.74;100.00
22283;BME280;11310;51.528;21.204;2022-09-09T04:42:10;99649.59;;;13.74;100.00
22283;BME280;11310;51.528;21.204;2022-09-09T04:44:43;99653.00;;;13.76;100.00
22283;BME280;11310;51.528;21.204;2022-09-09T04:47:12;99654.69;;;13.77;100.00
22283;BME280;11310;51.528;21.204;2022-09-09T04:49:42;99654.50;;;13.80;100.00
22283;BME280;11310;51.528;21.204;2022-09-09T04:52:11;99663.03;;;13.84;100.00
22283;BME280;11310;51.528;21.204;2022-09-09T04:54:43;99664.81;;;13.83;100.00
22283;BME280;11310;51.528;21.204;2022-09-09T04:57:29;99665.69;;;13.84;100.00
22283;BME280;11310;51.528;21.204;2022-09-09T05:00:03;99662.09;;;13.85;100.00
22283;BME280;11310;51.528;21.204;2022-09-09T05:02:37;99664.63;;;13.86;100.00
22283;BME280;11310;51.528;21.204;2022-09-09T05:05:07;99660.84;;;13.90;100.00
22283;BME280;11310;51.528;21.204;2022-09-09T05:07:38;99665.09;;;13.93;100.00
22283;BME280;11310;51.528;21.204;2022-09-09T05:10:09;99664.03;;;13.95;100.00
22283;BME280;11310;51.528;21.204;2022-09-09T05:12:38;99662.34;;;13.94;100.00
22283;BME280;11310;51.528;21.204;2022-09-09T05:15:10;99667.41;;;13.97;100.00
22283;BME280;11310;51.528;21.204;2022-09-09T05:17:39;99668.91;;;14.01;100.00
22283;BME280;11310;51.528;21.204;2022-09-09T05:20:09;99665.34;;;14.02;100.00
22283;BME280;11310;51.528;21.204;2022-09-09T05:22:43;99670.81;;;13.99;100.00
22283;BME280;11310;51.528;21.204;2022-09-09T05:25:15;99672.50;;;14.00;100.00
22283;BME280;11310;51.528;21.204;2022-09-09T05:27:55;99672.50;;;14.00;100.00
22283;BME280;11310;51.528;21.204;2022-09-09T05:30:51;99674.41;;;13.98;100.00
22283;BME280;11310;51.528;21.204;2022-09-09T05:33:29;99675.31;;;13.97;100.00
22283;BME280;11310;51.528;21.204;2022-09-09T05:36:05;99677.97;;;13.97;100.00
22283;BME280;11310;51.528;21.204;2022-09-09T05:38:36;99669.31;;;13.95;100.00
22283;BME280;11310;51.528;21.204;2022-09-09T05:41:06;99682.22;;;14.00;100.00
22283;BME280;11310;51.528;21.204;2022-09-09T05:43:37;99678.53;;;14.02;100.00
22283;BME280;11310;51.528;21.204;2022-09-09T05:46:11;99684.34;;;14.07;100.00
22283;BME280;11310;51.528;21.204;2022-09-09T05:48:48;99679.63;;;14.12;100.00
22283;BME280;11310;51.528;21.204;2022-09-09T05:51:20;99682.78;;;14.17;100.00
22283;BME280;11310;51.528;21.204;2022-09-09T05:53:53;99677.59;;;14.16;100.00
22283;BME280;11310;51.528;21.204;2022-09-09T05:56:23;99683.75;;;14.16;100.00
22283;BME280;11310;51.528;21.204;2022-09-09T05:58:55;99686.09;;;14.21;100.00
22283;BME280;11310;51.528;21.204;2022-09-09T06:01:28;99685.03;;;14.23;100.00
22283;BME280;11310;51.528;21.204;2022-09-09T06:04:08;99690.13;;;14.26;100.00
22283;BME280;11310;51.528;21.204;2022-09-09T06:06:46;99695.09;;;14.31;100.00
22283;BME280;11310;51.528;21.204;2022-09-09T06:09:44;99698.41;;;14.34;100.00
22283;BME280;11310;51.528;21.204;2022-09-09T06:12:22;99700.81;;;14.37;100.00
22283;BME280;11310;51.528;21.204;2022-09-09T06:14:57;99703.06;;;14.43;100.00
22283;BME280;11310;51.528;21.204;2022-09-09T06:17:30;99703.78;;;14.45;100.00
22283;BME280;11310;51.528;21.204;2022-09-09T06:20:00;99702.75;;;14.48;100.00
22283;BME280;11310;51.528;21.204;2022-09-09T06:22:31;99708.66;;;14.51;100.00
22283;BME280;11310;51.528;21.204;2022-09-09T06:25:03;99710.91;;;14.57;100.00
22283;BME280;11310;51.528;21.204;2022-09-09T06:27:33;99706.69;;;14.67;100.00
22283;BME280;11310;51.528;21.204;2022-09-09T06:30:04;99710.50;;;14.76;100.00
22283;BME280;11310;51.528;21.204;2022-09-09T06:32:36;99716.97;;;14.84;100.00
22283;BME280;11310;51.528;21.204;2022-09-09T06:35:07;99716.44;;;14.92;100.00
22283;BME280;11310;51.528;21.204;2022-09-09T06:37:38;99716.84;;;14.98;100.00
22283;BME280;11310;51.528;21.204;2022-09-09T06:40:16;99709.88;;;15.10;100.00
22283;BME280;11310;51.528;21.204;2022-09-09T06:42:47;99719.03;;;15.29;100.00
22283;BME280;11310;51.528;21.204;2022-09-09T06:45:31;99720.88;;;15.41;100.00
22283;BME280;11310;51.528;21.204;2022-09-09T06:48:03;99726.56;;;15.48;100.00
22283;BME280;11310;51.528;21.204;2022-09-09T06:50:34;99736.53;;;15.44;100.00
22283;BME280;11310;51.528;21.204;2022-09-09T06:53:04;99737.69;;;15.40;100.00
22283;BME280;11310;51.528;21.204;2022-09-09T06:55:33;99743.50;;;15.45;100.00
22283;BME280;11310;51.528;21.204;2022-09-09T06:58:07;99740.34;;;15.40;100.00
22283;BME280;11310;51.528;21.204;2022-09-09T07:00:37;99740.34;;;15.40;100.00
22283;BME280;11310;51.528;21.204;2022-09-09T07:03:08;99751.53;;;15.44;100.00
22283;BME280;11310;51.528;21.204;2022-09-09T07:05:39;99754.78;;;15.47;100.00
22283;BME280;11310;51.528;21.204;2022-09-09T07:08:11;99758.09;;;15.51;100.00
22283;BME280;11310;51.528;21.204;2022-09-09T07:10:45;99756.28;;;15.51;100.00
22283;BME280;11310;51.528;21.204;2022-09-09T07:13:49;99759.66;;;15.53;100.00
22283;BME280;11310;51.528;21.204;2022-09-09T07:16:20;99753.19;;;15.57;100.00
22283;BME280;11310;51.528;21.204;2022-09-09T07:18:53;99766.41;;;15.57;100.00
22283;BME280;11310;51.528;21.204;2022-09-09T07:21:26;99768.22;;;15.57;100.00
22283;BME280;11310;51.528;21.204;2022-09-09T07:24:01;99773.41;;;15.58;100.00
22283;BME280;11310;51.528;21.204;2022-09-09T07:26:33;99767.59;;;15.66;100.00
22283;BME280;11310;51.528;21.204;2022-09-09T07:29:03;99765.25;;;15.74;100.00
22283;BME280;11310;51.528;21.204;2022-09-09T07:31:35;99762.59;;;15.74;100.00
22283;BME280;11310;51.528;21.204;2022-09-09T07:34:28;99763.31;;;15.76;100.00
22283;BME280;11310;51.528;21.204;2022-09-09T07:37:17;99760.13;;;15.83;100.00
22283;BME280;11310;51.528;21.204;2022-09-09T07:39:58;99764.13;;;15.89;100.00
22283;BME280;11310;51.528;21.204;2022-09-09T07:42:37;99770.91;;;15.93;100.00
22283;BME280;11310;51.528;21.204;2022-09-09T07:45:07;99768.97;;;15.95;100.00
22283;BME280;11310;51.528;21.204;2022-09-09T07:47:37;99773.44;;;15.94;100.00
22283;BME280;11310;51.528;21.204;2022-09-09T07:50:10;99773.19;;;15.97;100.00
22283;BME280;11310;51.528;21.204;2022-09-09T07:52:39;99768.66;;;15.99;100.00
22283;BME280;11310;51.528;21.204;2022-09-09T07:55:09;99779.88;;;16.03;100.00
22283;BME280;11310;51.528;21.204;2022-09-09T07:57:55;99777.22;;;16.03;100.00
22283;BME280;11310;51.528;21.204;2022-09-09T08:00:31;99786.28;;;16.11;100.00
22283;BME280;11310;51.528;21.204;2022-09-09T08:03:01;99786.47;;;16.21;100.00
22283;BME280;11310;51.528;21.204;2022-09-09T08:05:36;99785.81;;;16.30;100.00
22283;BME280;11310;51.528;21.204;2022-09-09T08:08:15;99788.09;;;16.34;100.00
22283;BME280;11310;51.528;21.204;2022-09-09T08:13:37;99803.66;;;16.39;100.00
22283;BME280;11310;51.528;21.204;2022-09-09T08:16:07;99807.38;;;16.36;100.00
22283;BME280;11310;51.528;21.204;2022-09-09T08:18:37;99812.44;;;16.39;100.00
22283;BME280;11310;51.528;21.204;2022-09-09T08:21:09;99805.28;;;16.41;100.00
22283;BME280;11310;51.528;21.204;2022-09-09T08:23:41;99810.47;;;16.43;100.00
22283;BME280;11310;51.528;21.204;2022-09-09T08:26:25;99815.88;;;16.41;100.00
22283;BME280;11310;51.528;21.204;2022-09-09T08:28:56;99810.69;;;16.40;100.00
22283;BME280;11310;51.528;21.204;2022-09-09T08:31:28;99815.88;;;16.41;100.00
22283;BME280;11310;51.528;21.204;2022-09-09T08:34:00;99813.13;;;16.43;100.00
22283;BME280;11310;51.528;21.204;2022-09-09T08:36:34;99818.41;;;16.43;100.00
22283;BME280;11310;51.528;21.204;2022-09-09T08:39:04;99809.50;;;16.44;100.00
22283;BME280;11310;51.528;21.204;2022-09-09T08:47:22;99818.13;;;16.58;100.00
22283;BME280;11310;51.528;21.204;2022-09-09T08:50:11;99810.44;;;16.66;100.00
22283;BME280;11310;51.528;21.204;2022-09-09T08:52:55;99823.13;;;16.74;100.00
22283;BME280;11310;51.528;21.204;2022-09-09T08:56:12;99824.88;;;16.86;100.00
22283;BME280;11310;51.528;21.204;2022-09-09T08:59:21;99830.06;;;16.87;100.00
22283;BME280;11310;51.528;21.204;2022-09-09T09:02:38;99835.13;;;16.90;100.00
22283;BME280;11310;51.528;21.204;2022-09-09T09:05:22;99830.91;;;16.88;100.00
22283;BME280;11310;51.528;21.204;2022-09-09T09:08:14;99833.66;;;16.86;100.00
22283;BME280;11310;51.528;21.204;2022-09-09T09:10:50;99831.75;;;16.88;100.00
22283;BME280;11310;51.528;21.204;2022-09-09T09:13:30;99835.84;;;16.92;100.00
22283;BME280;11310;51.528;21.204;2022-09-09T09:16:13;99845.50;;;16.93;100.00
22283;BME280;11310;51.528;21.204;2022-09-09T09:18:50;99841.88;;;16.94;100.00
22283;BME280;11310;51.528;21.204;2022-09-09T09:21:25;99849.00;;;16.94;100.00
22283;BME280;11310;51.528;21.204;2022-09-09T09:24:00;99845.75;;;16.90;100.00
22283;BME280;11310;51.528;21.204;2022-09-09T09:26:34;99839.69;;;16.88;100.00
22283;BME280;11310;51.528;21.204;2022-09-09T09:29:10;99850.41;;;16.87;100.00
22283;BME280;11310;51.528;21.204;2022-09-09T09:31:44;99852.31;;;16.85;100.00
22283;BME280;11310;51.528;21.204;2022-09-09T09:34:27;99852.94;;;16.88;100.00
22283;BME280;11310;51.528;21.204;2022-09-09T09:36:57;99849.09;;;16.92;100.00
22283;BME280;11310;51.528;21.204;2022-09-09T09:39:33;99849.59;;;16.97;100.00
22283;BME280;11310;51.528;21.204;2022-09-09T09:42:23;99844.69;;;17.04;100.00
22283;BME280;11310;51.528;21.204;2022-09-09T09:44:56;99854.81;;;17.10;100.00
22283;BME280;11310;51.528;21.204;2022-09-09T09:47:36;99840.97;;;17.17;100.00
22283;BME280;11310;51.528;21.204;2022-09-09T09:50:19;99849.31;;;17.24;100.00
22283;BME280;11310;51.528;21.204;2022-09-09T09:52:54;99855.69;;;17.21;100.00
22283;BME280;11310;51.528;21.204;2022-09-09T09:55:28;99861.88;;;17.22;100.00
22283;BME280;11310;51.528;21.204;2022-09-09T09:58:03;99862.56;;;17.24;100.00
22283;BME280;11310;51.528;21.204;2022-09-09T10:00:33;99858.34;;;17.21;100.00
22283;BME280;11310;51.528;21.204;2022-09-09T10:03:21;99864.84;;;17.17;100.00
22283;BME280;11310;51.528;21.204;2022-09-09T10:05:53;99867.84;;;17.13;100.00
22283;BME280;11310;51.528;21.204;2022-09-09T10:08:23;99874.72;;;17.15;100.00
22283;BME280;11310;51.528;21.204;2022-09-09T10:11:20;99868.94;;;17.10;100.00
22283;BME280;11310;51.528;21.204;2022-09-09T10:14:00;99879.03;;;17.05;100.00
22283;BME280;11310;51.528;21.204;2022-09-09T10:16:40;99874.72;;;17.04;100.00
22283;BME280;11310;51.528;21.204;2022-09-09T10:19:15;99883.38;;;17.06;100.00
22283;BME280;11310;51.528;21.204;2022-09-09T10:22:00;99890.16;;;17.10;100.00
22283;BME280;11310;51.528;21.204;2022-09-09T10:24:49;99897.88;;;17.13;100.00
22283;BME280;11310;51.528;21.204;2022-09-09T10:27:27;99894.75;;;17.19;100.00
22283;BME280;11310;51.528;21.204;2022-09-09T10:30:11;99897.19;;;17.22;100.00
22283;BME280;11310;51.528;21.204;2022-09-09T10:32:49;99897.41;;;17.19;100.00
22283;BME280;11310;51.528;21.204;2022-09-09T10:35:27;99905.59;;;17.16;100.00
22283;BME280;11310;51.528;21.204;2022-09-09T10:38:10;99900.53;;;17.13;100.00
22283;BME280;11310;51.528;21.204;2022-09-09T10:47:14;99906.22;;;17.20;100.00
22283;BME280;11310;51.528;21.204;2022-09-09T10:49:50;99910.88;;;17.16;100.00
22283;BME280;11310;51.528;21.204;2022-09-09T10:52:30;99911.63;;;17.18;100.00
22283;BME280;11310;51.528;21.204;2022-09-09T10:55:10;99908.72;;;17.21;100.00
22283;BME280;11310;51.528;21.204;2022-09-09T10:57:44;99908.41;;;17.26;100.00
22283;BME280;11310;51.528;21.204;2022-09-09T11:00:17;99909.75;;;17.31;100.00
22283;BME280;11310;51.528;21.204;2022-09-09T11:02:50;99912.69;;;17.39;100.00
22283;BME280;11310;51.528;21.204;2022-09-09T11:05:24;99915.84;;;17.44;100.00
22283;BME280;11310;51.528;21.204;2022-09-09T11:07:58;99915.00;;;17.44;100.00
22283;BME280;11310;51.528;21.204;2022-09-09T11:10:40;99915.13;;;17.42;100.00
22283;BME280;11310;51.528;21.204;2022-09-09T11:13:17;99916.91;;;17.42;100.00
22283;BME280;11310;51.528;21.204;2022-09-09T11:15:50;99923.94;;;17.43;100.00
22283;BME280;11310;51.528;21.204;2022-09-09T11:18:26;99921.13;;;17.44;100.00
22283;BME280;11310;51.528;21.204;2022-09-09T11:21:02;99922.84;;;17.45;100.00
22283;BME280;11310;51.528;21.204;2022-09-09T11:23:39;99929.84;;;17.46;100.00
22283;BME280;11310;51.528;21.204;2022-09-09T11:26:16;99927.41;;;17.43;100.00
22283;BME280;11310;51.528;21.204;2022-09-09T11:28:58;99923.06;;;17.42;100.00
22283;BME280;11310;51.528;21.204;2022-09-09T11:31:44;99929.34;;;17.41;100.00
22283;BME280;11310;51.528;21.204;2022-09-09T11:34:25;99937.31;;;17.41;100.00
22283;BME280;11310;51.528;21.204;2022-09-09T11:37:14;99935.25;;;17.45;100.00
22283;BME280;11310;51.528;21.204;2022-09-09T11:40:00;99929.72;;;17.48;100.00
22283;BME280;11310;51.528;21.204;2022-09-09T11:42:35;99932.38;;;17.48;100.00
22283;BME280;11310;51.528;21.204;2022-09-09T11:45:22;99932.88;;;17.53;100.00
22283;BME280;11310;51.528;21.204;2022-09-09T11:47:54;99933.47;;;17.56;100.00
22283;BME280;11310;51.528;21.204;2022-09-09T11:50:28;99932.41;;;17.59;100.00
22283;BME280;11310;51.528;21.204;2022-09-09T11:53:18;99940.25;;;17.60;100.00
22283;BME280;11310;51.528;21.204;2022-09-09T11:56:11;99949.78;;;17.63;100.00
22283;BME280;11310;51.528;21.204;2022-09-09T11:58:54;99942.69;;;17.63;100.00
22283;BME280;11310;51.528;21.204;2022-09-09T12:01:38;99943.88;;;17.59;100.00
22283;BME280;11310;51.528;21.204;2022-09-09T12:04:29;99945.19;;;17.54;100.00
22283;BME280;11310;51.528;21.204;2022-09-09T12:07:00;99936.59;;;17.50;100.00
22283;BME280;11310;51.528;21.204;2022-09-09T12:09:37;99933.22;;;17.48;100.00
22283;BME280;11310;51.528;21.204;2022-09-09T12:12:26;99933.22;;;17.48;100.00
22283;BME280;11310;51.528;21.204;2022-09-09T12:17:50;99937.06;;;17.44;100.00
22283;BME280;11310;51.528;21.204;2022-09-09T12:20:22;99947.81;;;17.43;100.00
22283;BME280;11310;51.528;21.204;2022-09-09T12:23:03;99945.25;;;17.41;100.00
22283;BME280;11310;51.528;21.204;2022-09-09T12:25:48;99945.56;;;17.37;100.00
22283;BME280;11310;51.528;21.204;2022-09-09T12:28:21;99946.88;;;17.31;100.00
22283;BME280;11310;51.528;21.204;2022-09-09T12:30:58;99942.25;;;17.22;100.00
22283;BME280;11310;51.528;21.204;2022-09-09T12:33:34;99938.47;;;17.14;100.00
22283;BME280;11310;51.528;21.204;2022-09-09T12:36:04;99937.16;;;17.08;100.00
22283;BME280;11310;51.528;21.204;2022-09-09T12:38:40;99930.97;;;17.08;100.00
22283;BME280;11310;51.528;21.204;2022-09-09T12:41:18;99928.34;;;17.08;100.00
22283;BME280;11310;51.528;21.204;2022-09-09T12:43:48;99930.00;;;17.09;100.00
22283;BME280;11310;51.528;21.204;2022-09-09T12:46:27;99937.66;;;17.13;100.00
22283;BME280;11310;51.528;21.204;2022-09-09T12:48:59;99940.78;;;17.18;100.00
22283;BME280;11310;51.528;21.204;2022-09-09T12:51:29;99936.97;;;17.22;100.00
22283;BME280;11310;51.528;21.204;2022-09-09T12:53:59;99927.06;;;17.24;100.00
22283;BME280;11310;51.528;21.204;2022-09-09T12:56:31;99931.09;;;17.30;100.00
22283;BME280;11310;51.528;21.204;2022-09-09T12:59:00;99927.09;;;17.35;100.00
22283;BME280;11310;51.528;21.204;2022-09-09T13:01:32;99925.25;;;17.48;100.00
22283;BME280;11310;51.528;21.204;2022-09-09T13:04:01;99917.84;;;17.64;100.00
22283;BME280;11310;51.528;21.204;2022-09-09T13:06:32;99923.19;;;17.97;100.00
22283;BME280;11310;51.528;21.204;2022-09-09T13:09:02;99915.63;;;18.90;100.00
22283;BME280;11310;51.528;21.204;2022-09-09T13:11:35;99902.38;;;20.04;100.00
22283;BME280;11310;51.528;21.204;2022-09-09T13:14:05;99914.38;;;20.58;100.00
22283;BME280;11310;51.528;21.204;2022-09-09T13:16:37;99917.91;;;20.29;100.00
22283;BME280;11310;51.528;21.204;2022-09-09T13:19:13;99919.31;;;19.82;100.00
22283;BME280;11310;51.528;21.204;2022-09-09T13:21:43;99921.63;;;19.46;100.00
22283;BME280;11310;51.528;21.204;2022-09-09T13:24:26;99926.41;;;19.20;100.00
22283;BME280;11310;51.528;21.204;2022-09-09T13:26:58;99919.63;;;19.27;100.00
22283;BME280;11310;51.528;21.204;2022-09-09T13:29:29;99914.84;;;19.42;100.00
22283;BME280;11310;51.528;21.204;2022-09-09T13:32:05;99926.88;;;19.77;100.00
22283;BME280;11310;51.528;21.204;2022-09-09T13:34:35;99925.41;;;20.14;100.00
22283;BME280;11310;51.528;21.204;2022-09-09T13:37:05;99923.31;;;20.38;100.00
22283;BME280;11310;51.528;21.204;2022-09-09T13:39:36;99927.16;;;20.25;100.00